Terminal Aerodrome Forecast
Issued by NWS Wakefield, VA

Home | Current Version | Previous Version | Text Only | Print | Product List | Glossary On
Versions: 1 2 3 4 5 6 7 8 9 10 11 12 13 14 15 16 17 18 19
000
FTUS41 KAKQ 012300
TAFSBY
TAF
KSBY 012326Z 0200/0224 20009KT P6SM SCT060
     FM020700 22003KT 5SM HZ SCT010 SCT035
     FM021300 25007KT P6SM FEW050=

USA.gov is the U.S. government's official web portal to all federal, state and local government web resources and services.